Time;durP1;ratioP1;P1;durP2;ratioP2;P2;SDS_P1;SDS_P2;PMS_P1;PMS_P2;Temp;Humidity;BMP_temperature;BMP_pressure;BME280_temperature;BME280_humidity;BME280_pressure;Samples;Min_cycle;Max_cycle;Signal;HPM_P1;HPM_P2
2022/01/17 00:00:39;;;;;;;26.67;20.77;;;5.70;1.00;;;;;;4988608;28;20295;-82
2022/01/17 00:03:09;;;;;;;30.35;21.00;;;5.70;1.00;;;;;;4991056;28;20219;-82
2022/01/17 00:05:37;;;;;;;29.02;21.45;;;5.70;1.00;;;;;;4981456;28;20220;-83
2022/01/17 00:08:06;;;;;;;27.77;19.90;;;5.70;1.00;;;;;;4982315;28;20288;-83
2022/01/17 00:10:35;;;;;;;25.38;20.42;;;5.70;1.00;;;;;;4970430;28;20229;-83
2022/01/17 00:13:04;;;;;;;27.75;22.08;;;5.70;1.00;;;;;;4974760;28;20236;-84
2022/01/17 00:15:43;;;;;;;27.80;19.25;;;5.70;1.00;;;;;;4970602;28;20231;-82
2022/01/17 00:20:50;;;;;;;27.20;19.50;;;5.80;1.00;;;;;;4969874;28;20232;-83
2022/01/17 00:23:22;;;;;;;26.27;19.90;;;5.80;1.00;;;;;;4970567;28;20264;-84
2022/01/17 00:25:49;;;;;;;25.92;19.77;;;5.80;1.00;;;;;;4973282;28;20332;-83
2022/01/17 00:28:22;;;;;;;26.50;19.75;;;5.80;1.00;;;;;;4975014;28;20297;-83
2022/01/17 00:30:49;;;;;;;27.70;19.50;;;5.80;1.00;;;;;;4970535;28;21079;-83
2022/01/17 00:33:16;;;;;;;25.35;18.35;;;5.90;1.00;;;;;;4977362;28;20231;-84
2022/01/17 00:35:52;;;;;;;24.65;17.60;;;5.90;1.00;;;;;;4979334;28;20236;-85
2022/01/17 00:38:22;;;;;;;25.17;17.55;;;5.90;1.00;;;;;;4983017;28;20223;-84
2022/01/17 00:41:01;;;;;;;22.95;17.15;;;5.90;1.00;;;;;;4985857;28;20209;-83
2022/01/17 00:43:28;;;;;;;25.08;17.63;;;5.90;1.00;;;;;;4980799;28;20345;-83
2022/01/17 00:46:00;;;;;;;23.05;15.98;;;5.90;1.00;;;;;;4980212;28;20248;-83
2022/01/17 00:48:29;;;;;;;19.73;15.45;;;6.00;1.00;;;;;;4981396;28;20450;-84
2022/01/17 00:50:56;;;;;;;20.20;15.15;;;6.00;1.00;;;;;;4980048;28;20242;-83
2022/01/17 00:53:24;;;;;;;18.02;14.15;;;6.00;1.00;;;;;;4978707;28;20228;-83
2022/01/17 00:55:56;;;;;;;21.73;15.30;;;6.00;1.00;;;;;;4987056;28;20236;-83
2022/01/17 00:58:25;;;;;;;22.42;14.48;;;6.10;1.00;;;;;;4981884;28;20255;-84
2022/01/17 01:00:52;;;;;;;26.23;14.95;;;6.10;1.00;;;;;;4974897;28;20241;-84
2022/01/17 01:03:21;;;;;;;19.88;14.98;;;6.10;1.00;;;;;;4966023;28;20375;-83
2022/01/17 01:05:52;;;;;;;19.27;14.43;;;6.10;1.00;;;;;;4970894;28;20266;-83
2022/01/17 01:08:19;;;;;;;21.90;14.60;;;6.10;1.00;;;;;;4967060;28;20228;-83
2022/01/17 01:10:48;;;;;;;22.17;13.85;;;6.20;1.00;;;;;;4948740;28;20711;-83
2022/01/17 01:13:21;;;;;;;18.30;12.82;;;6.20;1.00;;;;;;4963315;28;20323;-84
2022/01/17 01:16:11;;;;;;;20.60;14.00;;;6.20;1.00;;;;;;4963911;28;20220;-83
2022/01/17 01:19:09;;;;;;;21.33;14.43;;;6.20;1.00;;;;;;4956611;28;20229;-84
2022/01/17 01:21:59;;;;;;;16.98;12.40;;;6.20;1.00;;;;;;4973505;28;20241;-83
2022/01/17 01:29:57;;;;;;;17.88;13.05;;;6.30;1.00;;;;;;4976641;28;21036;-82
2022/01/17 01:32:33;;;;;;;16.08;11.93;;;6.30;1.00;;;;;;4969225;28;20226;-82
2022/01/17 01:35:03;;;;;;;14.98;11.25;;;6.30;1.00;;;;;;4974451;28;20236;-83
2022/01/17 01:37:30;;;;;;;15.68;10.93;;;6.30;1.00;;;;;;4949207;28;20224;-82
2022/01/17 01:40:00;;;;;;;14.20;10.10;;;6.40;1.00;;;;;;4964168;28;20252;-83
2022/01/17 01:42:32;;;;;;;16.60;11.05;;;6.30;1.00;;;;;;4960124;28;20221;-83
2022/01/17 01:45:09;;;;;;;10.13;8.48;;;6.40;1.00;;;;;;4958143;28;20221;-83
2022/01/17 01:47:36;;;;;;;11.60;8.43;;;6.30;1.00;;;;;;4961630;28;20240;-82
2022/01/17 01:50:12;;;;;;;15.10;8.40;;;6.30;1.00;;;;;;4940180;28;20322;-82
2022/01/17 01:52:46;;;;;;;11.60;9.15;;;6.30;1.00;;;;;;4940827;28;20415;-81
2022/01/17 01:55:17;;;;;;;13.52;9.07;;;6.30;1.00;;;;;;4942841;28;20232;-82
2022/01/17 01:57:46;;;;;;;9.10;6.28;;;6.30;1.00;;;;;;4951237;28;20247;-81
2022/01/17 02:00:16;;;;;;;10.68;7.13;;;6.30;1.00;;;;;;4963261;28;20300;-83
2022/01/17 02:02:45;;;;;;;10.80;5.70;;;6.30;1.00;;;;;;4960196;28;21008;-83
2022/01/17 02:05:15;;;;;;;9.77;5.30;;;6.30;1.00;;;;;;4966161;28;20221;-82
2022/01/17 02:07:44;;;;;;;10.32;4.80;;;6.30;1.00;;;;;;4966477;28;20231;-82
2022/01/17 02:10:12;;;;;;;6.07;3.65;;;6.30;1.00;;;;;;4961022;28;20259;-82
2022/01/17 02:12:39;;;;;;;7.00;4.20;;;6.10;1.00;;;;;;4982106;28;20243;-83
2022/01/17 02:15:15;;;;;;;8.48;3.88;;;6.00;1.00;;;;;;4976533;28;20270;-85
2022/01/17 02:17:48;;;;;;;3.75;2.25;;;5.90;1.00;;;;;;4973538;28;20217;-82
2022/01/17 02:20:23;;;;;;;3.90;1.80;;;5.70;1.00;;;;;;4962654;28;20228;-83
2022/01/17 02:22:53;;;;;;;6.20;2.50;;;5.50;1.00;;;;;;4942240;28;20234;-81
2022/01/17 02:25:22;;;;;;;5.60;2.20;;;5.40;1.00;;;;;;4955616;28;20259;-82
2022/01/17 02:27:49;;;;;;;5.68;2.20;;;5.40;1.00;;;;;;4957847;28;21867;-82
2022/01/17 02:30:24;;;;;;;5.03;1.95;;;5.40;1.00;;;;;;4963258;28;20228;-82
2022/01/17 02:32:54;;;;;;;5.93;2.28;;;5.30;1.00;;;;;;4956163;28;20260;-82
2022/01/17 02:35:28;;;;;;;10.35;2.55;;;5.30;1.00;;;;;;4941678;28;20260;-82
2022/01/17 02:38:00;;;;;;;4.30;2.10;;;5.30;1.00;;;;;;4959463;28;20322;-83
2022/01/17 02:40:29;;;;;;;6.05;2.38;;;5.30;1.00;;;;;;4957871;28;20263;-81
2022/01/17 02:43:04;;;;;;;4.93;2.08;;;5.30;1.00;;;;;;4940667;28;20299;-81
2022/01/17 02:45:36;;;;;;;5.75;1.88;;;5.40;1.00;;;;;;4938238;28;20236;-81
2022/01/17 02:48:05;;;;;;;7.32;1.95;;;5.40;1.00;;;;;;4960035;28;20220;-82
2022/01/17 02:50:35;;;;;;;5.15;1.88;;;5.50;1.00;;;;;;4958970;28;20300;-82
2022/01/17 02:53:08;;;;;;;8.02;2.15;;;5.50;1.00;;;;;;4954616;28;20228;-82
2022/01/17 02:55:36;;;;;;;9.63;2.05;;;5.60;1.00;;;;;;4939191;28;20234;-82
2022/01/17 02:58:05;;;;;;;5.40;1.23;;;5.60;1.00;;;;;;4946879;28;20228;-81
2022/01/17 03:00:33;;;;;;;6.47;2.00;;;5.60;1.00;;;;;;4959743;28;20298;-83
2022/01/17 03:03:02;;;;;;;4.53;1.63;;;5.70;1.00;;;;;;4946771;28;20228;-83
2022/01/17 03:05:30;;;;;;;6.38;2.05;;;5.70;1.00;;;;;;4962587;28;20284;-83
2022/01/17 03:08:00;;;;;;;4.13;1.52;;;5.80;1.00;;;;;;4960755;28;20389;-82
2022/01/17 03:10:37;;;;;;;4.53;1.75;;;5.80;1.00;;;;;;4957660;28;20730;-82
2022/01/17 03:13:06;;;;;;;3.35;1.05;;;5.90;1.00;;;;;;4959990;28;20243;-81
2022/01/17 03:15:39;;;;;;;4.28;1.90;;;6.00;1.00;;;;;;4956470;28;20259;-82
2022/01/17 03:18:08;;;;;;;6.50;1.63;;;6.00;1.00;;;;;;4956902;28;20281;-81
2022/01/17 03:20:38;;;;;;;3.92;1.77;;;6.10;1.00;;;;;;4962412;28;20927;-83
2022/01/17 03:23:08;;;;;;;7.40;2.00;;;6.20;1.00;;;;;;4963584;28;20323;-83
2022/01/17 03:25:38;;;;;;;6.50;1.63;;;6.20;1.00;;;;;;4954184;28;20338;-84
2022/01/17 03:28:08;;;;;;;6.30;2.13;;;6.20;1.00;;;;;;4957118;28;20228;-82
2022/01/17 03:30:36;;;;;;;7.65;2.05;;;6.20;1.00;;;;;;4966184;28;20284;-83
2022/01/17 03:33:06;;;;;;;9.95;2.53;;;6.20;1.00;;;;;;4965525;28;20227;-82
2022/01/17 03:35:36;;;;;;;6.63;2.25;;;6.20;1.00;;;;;;4951825;28;20246;-82
2022/01/17 03:38:03;;;;;;;6.25;2.20;;;6.30;1.00;;;;;;4960001;28;20314;-84
2022/01/17 03:40:38;;;;;;;5.05;1.83;;;6.30;1.00;;;;;;4949071;28;20266;-82
2022/01/17 03:43:09;;;;;;;8.35;2.55;;;6.20;1.00;;;;;;4955729;28;20248;-82
2022/01/17 03:45:36;;;;;;;6.97;1.90;;;6.20;1.00;;;;;;4954850;28;20217;-83
2022/01/17 03:48:05;;;;;;;5.07;2.55;;;6.20;1.00;;;;;;4973715;28;20225;-82
2022/01/17 03:50:35;;;;;;;6.25;2.17;;;6.20;1.00;;;;;;4960444;28;20268;-83
2022/01/17 03:53:03;;;;;;;5.85;2.30;;;6.20;1.00;;;;;;4962656;28;20279;-81
2022/01/17 03:55:34;;;;;;;7.18;1.83;;;6.20;1.00;;;;;;4958671;28;20775;-84
2022/01/17 03:58:04;;;;;;;6.95;1.98;;;6.20;1.00;;;;;;4955334;28;20228;-81
2022/01/17 04:00:34;;;;;;;8.77;2.00;;;6.20;1.00;;;;;;4962526;28;20659;-82
2022/01/17 04:03:02;;;;;;;12.57;2.75;;;6.20;1.00;;;;;;4958068;28;20216;-81
2022/01/17 04:05:29;;;;;;;9.55;2.47;;;6.20;1.00;;;;;;4960208;28;20236;-82
2022/01/17 04:07:56;;;;;;;5.68;1.90;;;6.20;1.00;;;;;;4966146;28;20224;-81
2022/01/17 04:10:25;;;;;;;5.50;2.20;;;6.30;1.00;;;;;;4969340;28;20374;-82
2022/01/17 04:13:00;;;;;;;8.65;2.20;;;6.30;1.00;;;;;;4955687;28;20292;-81
2022/01/17 04:15:28;;;;;;;8.65;2.55;;;6.30;1.00;;;;;;4954674;28;20713;-81
2022/01/17 04:17:55;;;;;;;4.82;2.33;;;6.30;1.00;;;;;;4959568;28;20223;-82
2022/01/17 04:20:27;;;;;;;7.30;2.20;;;6.30;1.00;;;;;;4959299;28;20236;-81
2022/01/17 04:23:06;;;;;;;6.22;2.08;;;6.30;1.00;;;;;;4963779;28;20225;-82
2022/01/17 04:25:41;;;;;;;8.07;1.85;;;6.30;1.00;;;;;;4969918;28;20220;-82
2022/01/17 04:28:13;;;;;;;9.07;2.20;;;6.30;1.00;;;;;;4960694;28;20467;-80
2022/01/17 04:30:41;;;;;;;7.65;2.78;;;6.30;1.00;;;;;;4963661;28;20599;-84
2022/01/17 04:33:08;;;;;;;7.57;2.80;;;6.30;1.00;;;;;;4970667;28;20666;-83
2022/01/17 04:35:39;;;;;;;10.32;3.58;;;6.20;1.00;;;;;;4963979;28;20247;-83
2022/01/17 04:38:13;;;;;;;5.85;2.10;;;6.20;1.00;;;;;;4965052;28;20240;-83
2022/01/17 04:40:46;;;;;;;9.15;3.25;;;6.30;1.00;;;;;;4964900;28;20235;-82
2022/01/17 04:43:22;;;;;;;10.13;2.40;;;6.20;1.00;;;;;;4964863;28;20216;-82
2022/01/17 04:45:50;;;;;;;5.65;2.00;;;6.20;1.00;;;;;;4960852;28;20983;-82
2022/01/17 04:48:24;;;;;;;6.53;2.28;;;6.20;1.00;;;;;;4945667;28;20230;-83
2022/01/17 04:50:51;;;;;;;5.07;2.28;;;6.20;1.00;;;;;;4948178;28;20244;-83
2022/01/17 04:53:20;;;;;;;8.20;2.50;;;6.20;1.00;;;;;;4957263;28;20229;-82
2022/01/17 04:55:48;;;;;;;5.47;2.15;;;6.20;1.00;;;;;;4944024;28;20236;-82
2022/01/17 04:58:17;;;;;;;5.28;2.20;;;6.20;1.00;;;;;;4953915;28;20228;-82
2022/01/17 05:00:52;;;;;;;8.02;2.13;;;6.20;1.00;;;;;;4953868;28;20229;-83
2022/01/17 05:03:32;;;;;;;8.38;3.67;;;6.20;1.00;;;;;;4963098;28;20276;-82
2022/01/17 05:05:59;;;;;;;6.50;2.00;;;6.20;1.00;;;;;;4955392;28;20238;-83
2022/01/17 05:08:26;;;;;;;5.13;2.25;;;6.20;1.00;;;;;;4953696;28;20221;-83
2022/01/17 05:10:56;;;;;;;3.92;1.88;;;6.20;1.00;;;;;;4961454;28;20236;-82
2022/01/17 05:13:31;;;;;;;8.32;2.35;;;6.10;1.00;;;;;;4987501;28;20214;-82
2022/01/17 05:16:07;;;;;;;13.98;4.63;;;6.10;1.00;;;;;;4980632;28;20224;-81
2022/01/17 05:21:22;;;;;;;9.10;2.20;;;6.10;1.00;;;;;;4939003;28;21047;-82
2022/01/17 05:23:49;;;;;;;7.28;2.58;;;6.10;1.00;;;;;;4967062;28;20220;-78
2022/01/17 05:26:16;;;;;;;9.55;2.67;;;6.20;1.00;;;;;;4970101;28;20232;-81
2022/01/17 05:28:45;;;;;;;9.23;2.72;;;6.20;1.00;;;;;;4962709;28;20248;-81
2022/01/17 05:31:14;;;;;;;6.90;3.05;;;6.20;1.00;;;;;;4961621;28;20231;-81
2022/01/17 05:33:42;;;;;;;5.47;2.25;;;6.30;1.00;;;;;;4969783;28;20244;-82
2022/01/17 05:36:09;;;;;;;4.90;2.22;;;6.30;1.00;;;;;;4962772;28;20277;-81
2022/01/17 05:38:36;;;;;;;5.50;2.17;;;6.30;1.00;;;;;;4961426;28;20225;-82
2022/01/17 05:41:06;;;;;;;8.30;2.55;;;6.30;1.00;;;;;;4956984;28;20227;-81
2022/01/17 05:43:33;;;;;;;10.20;2.50;;;6.30;1.00;;;;;;4963763;28;20277;-81
2022/01/17 05:46:04;;;;;;;4.97;2.60;;;6.30;1.00;;;;;;4936969;28;20851;-81
2022/01/17 05:48:31;;;;;;;6.85;2.20;;;6.30;1.00;;;;;;4944368;28;21554;-81
2022/01/17 05:50:58;;;;;;;6.47;2.60;;;6.30;1.00;;;;;;4962075;28;20694;-82
2022/01/17 05:53:25;;;;;;;5.75;2.60;;;6.30;1.00;;;;;;4960953;28;20247;-82
2022/01/17 05:55:52;;;;;;;7.35;2.42;;;6.40;1.00;;;;;;4956883;28;20240;-82
2022/01/17 05:58:19;;;;;;;5.45;2.00;;;6.30;1.00;;;;;;4959366;28;20300;-82
2022/01/17 06:00:46;;;;;;;8.18;2.20;;;6.30;1.00;;;;;;4958457;28;20710;-81
2022/01/17 06:03:20;;;;;;;8.27;1.95;;;6.30;1.00;;;;;;4956286;28;20221;-80
2022/01/17 06:05:47;;;;;;;8.18;2.35;;;6.30;1.00;;;;;;4961538;28;20299;-80
2022/01/17 06:08:14;;;;;;;7.57;2.22;;;6.30;1.00;;;;;;4962722;28;20223;-80
2022/01/17 06:10:41;;;;;;;9.43;2.40;;;6.30;1.00;;;;;;4962362;28;20728;-80
2022/01/17 06:13:08;;;;;;;7.65;2.47;;;6.30;1.00;;;;;;4970025;28;20712;-80
2022/01/17 06:15:35;;;;;;;8.85;2.30;;;6.30;1.00;;;;;;4970155;28;20243;-79
2022/01/17 06:18:02;;;;;;;7.65;2.40;;;6.30;1.00;;;;;;4962593;28;20220;-80
2022/01/17 06:20:30;;;;;;;5.90;1.90;;;6.30;1.00;;;;;;4955856;28;20244;-79
2022/01/17 06:22:57;;;;;;;7.70;1.85;;;6.30;1.00;;;;;;4962414;28;21004;-79
2022/01/17 06:25:27;;;;;;;5.22;1.90;;;6.20;1.00;;;;;;4962117;28;20279;-80
2022/01/17 06:27:54;;;;;;;11.80;2.50;;;6.10;1.00;;;;;;4958415;28;20225;-81
2022/01/17 06:30:27;;;;;;;10.35;3.05;;;6.00;1.00;;;;;;4950284;28;20231;-81
2022/01/17 06:32:57;;;;;;;6.60;2.17;;;6.00;1.00;;;;;;4970827;28;20219;-83
2022/01/17 06:35:27;;;;;;;8.73;2.53;;;6.00;1.00;;;;;;4965062;28;20232;-80
2022/01/17 06:38:03;;;;;;;6.05;2.00;;;5.90;1.00;;;;;;4962017;28;20224;-83
2022/01/17 06:40:39;;;;;;;8.80;2.25;;;5.90;1.00;;;;;;4962930;28;21117;-78
2022/01/17 06:43:34;;;;;;;5.72;1.88;;;5.80;1.00;;;;;;4969971;28;20232;-79
2022/01/17 06:46:07;;;;;;;5.50;2.05;;;5.80;1.00;;;;;;4981724;28;20270;-79
2022/01/17 06:48:34;;;;;;;6.93;1.85;;;5.80;1.00;;;;;;4976337;28;20239;-78
2022/01/17 06:51:05;;;;;;;5.70;2.10;;;5.70;1.00;;;;;;4966670;28;20224;-81
2022/01/17 06:56:34;;;;;;;8.15;2.25;;;5.60;1.00;;;;;;4948467;28;20258;-80
2022/01/17 07:05:32;;;;;;;4.63;1.90;;;5.60;1.00;;;;;;1384241;26;20272;-79
2022/01/17 07:12:06;;;;;;;5.90;2.33;;;5.60;1.00;;;;;;4905336;29;20238;-78
2022/01/17 07:14:43;;;;;;;8.05;2.22;;;5.60;1.00;;;;;;4907121;28;20250;-77
2022/01/17 07:17:13;;;;;;;12.10;4.25;;;5.60;1.00;;;;;;4932713;28;20235;-80
2022/01/17 07:20:27;;;;;;;6.72;2.83;;;5.60;1.00;;;;;;4936860;28;20236;-81
2022/01/17 07:23:26;;;;;;;5.70;2.05;;;5.60;1.00;;;;;;4902239;28;20228;-77
2022/01/17 07:26:07;;;;;;;7.95;2.00;;;5.60;1.00;;;;;;4911196;28;20222;-79
2022/01/17 07:28:49;;;;;;;6.85;2.40;;;5.60;1.00;;;;;;4964415;28;20329;-80
2022/01/17 07:32:18;;;;;;;7.13;2.30;;;5.60;1.00;;;;;;4997079;28;20231;-78
2022/01/17 07:35:09;;;;;;;4.20;2.25;;;5.60;1.00;;;;;;4977219;28;20273;-77
2022/01/17 07:38:00;;;;;;;7.45;2.28;;;5.70;1.00;;;;;;4969289;28;20312;-78
2022/01/17 07:40:43;;;;;;;6.57;3.20;;;5.60;1.00;;;;;;4986057;28;21477;-77
2022/01/17 07:43:23;;;;;;;5.95;2.10;;;5.70;1.00;;;;;;5009107;28;20239;-78
2022/01/17 07:56:05;;;;;;;3.83;1.80;;;5.80;1.00;;;;;;5014219;28;20283;-78
2022/01/17 07:58:34;;;;;;;5.82;1.98;;;5.80;1.00;;;;;;5015701;28;20195;-77
2022/01/17 08:04:19;;;;;;;4.95;2.20;;;5.90;1.00;;;;;;4978465;28;20234;-77
2022/01/17 08:13:12;;;;;;;7.00;2.28;;;5.90;1.00;;;;;;5008874;28;20230;-77
2022/01/17 08:16:16;;;;;;;5.75;2.50;;;5.90;1.00;;;;;;5011664;28;20222;-78
2022/01/17 08:19:06;;;;;;;4.68;3.03;;;5.80;1.00;;;;;;5030642;28;20669;-78
2022/01/17 08:24:48;;;;;;;6.65;2.65;;;5.80;1.00;;;;;;4980927;28;20220;-78
2022/01/17 08:27:18;;;;;;;4.95;1.98;;;5.90;1.00;;;;;;5014548;28;20222;-77
2022/01/17 08:29:45;;;;;;;4.60;2.40;;;5.80;1.00;;;;;;5028272;28;20245;-78
2022/01/17 08:32:16;;;;;;;4.25;1.90;;;5.90;1.00;;;;;;5008209;28;20712;-78
2022/01/17 08:34:44;;;;;;;5.95;1.88;;;5.90;1.00;;;;;;5024846;28;20374;-78
2022/01/17 08:37:19;;;;;;;5.70;2.22;;;5.90;1.00;;;;;;5013041;28;20215;-77
2022/01/17 08:39:51;;;;;;;7.40;3.08;;;5.90;1.00;;;;;;5027122;28;20226;-77
2022/01/17 08:42:23;;;;;;;5.20;1.95;;;6.00;1.00;;;;;;5013562;28;20747;-78
2022/01/17 08:44:51;;;;;;;5.55;1.85;;;5.90;1.00;;;;;;5011746;28;20296;-77
2022/01/17 08:47:43;;;;;;;8.88;3.42;;;6.00;1.00;;;;;;5006435;28;20227;-77
2022/01/17 08:50:14;;;;;;;7.47;1.60;;;6.00;1.00;;;;;;5001684;28;20298;-78
2022/01/17 08:52:47;;;;;;;5.15;1.65;;;6.00;1.00;;;;;;5021701;28;20212;-76
2022/01/17 08:55:16;;;;;;;5.15;1.70;;;6.00;1.00;;;;;;5022378;28;20242;-78
2022/01/17 08:57:57;;;;;;;4.47;2.03;;;6.00;1.00;;;;;;5021942;28;20222;-78
2022/01/17 09:00:28;;;;;;;3.03;1.70;;;6.10;1.00;;;;;;5013925;28;20226;-79
2022/01/17 09:03:21;;;;;;;3.10;1.40;;;6.10;1.00;;;;;;5013498;28;20295;-81
2022/01/17 09:36:52;;;;;;;4.03;1.77;;;6.20;1.00;;;;;;4935115;28;20371;-80
2022/01/17 09:39:31;;;;;;;5.40;1.98;;;6.20;1.00;;;;;;4949622;28;20239;-79
2022/01/17 09:42:02;;;;;;;4.82;2.22;;;6.20;1.00;;;;;;5003916;28;20235;-80
2022/01/17 09:44:52;;;;;;;4.30;2.15;;;6.20;1.00;;;;;;5011001;28;20281;-79
2022/01/17 09:47:25;;;;;;;3.80;1.65;;;6.20;1.00;;;;;;5012024;28;20226;-80
2022/01/17 09:50:01;;;;;;;6.95;2.60;;;6.20;1.00;;;;;;5001420;28;20316;-80
2022/01/17 09:52:41;;;;;;;7.40;4.38;;;6.30;1.00;;;;;;4998205;28;20226;-81
2022/01/17 09:55:22;;;;;;;5.28;2.78;;;6.30;1.00;;;;;;5016428;28;20250;-80
2022/01/17 09:58:10;;;;;;;3.35;1.60;;;6.30;1.00;;;;;;5020521;28;20222;-80
2022/01/17 10:01:05;;;;;;;4.28;2.33;;;6.30;1.00;;;;;;5001568;28;20451;-80
2022/01/17 10:03:39;;;;;;;6.30;1.60;;;6.20;1.00;;;;;;5001729;28;20680;-79
2022/01/17 10:06:22;;;;;;;4.28;1.52;;;6.10;1.00;;;;;;5001435;28;20229;-80
2022/01/17 10:12:10;;;;;;;2.65;1.38;;;5.90;1.00;;;;;;5017631;28;20241;-76
2022/01/17 10:14:42;;;;;;;4.57;3.00;;;5.90;1.00;;;;;;5024562;28;20345;-79
2022/01/17 10:17:16;;;;;;;5.45;1.73;;;5.90;1.00;;;;;;5015979;28;20691;-79
2022/01/17 10:20:05;;;;;;;9.70;2.30;;;5.90;1.00;;;;;;5000941;28;20310;-78
2022/01/17 10:22:51;;;;;;;6.75;1.52;;;6.00;1.00;;;;;;5023282;28;20229;-78
2022/01/17 10:25:37;;;;;;;5.20;1.45;;;6.00;1.00;;;;;;4999904;28;21822;-78
2022/01/17 10:34:56;;;;;;;6.45;2.25;;;6.30;1.00;;;;;;4994366;28;20826;-79
2022/01/17 10:37:29;;;;;;;6.93;2.17;;;6.40;1.00;;;;;;5009195;28;20233;-80
2022/01/17 10:42:32;;;;;;;8.18;3.17;;;6.60;1.00;;;;;;5022891;22;21036;-80
2022/01/17 10:45:05;;;;;;;5.53;1.98;;;6.60;1.00;;;;;;5018392;28;20231;-79
2022/01/17 10:47:52;;;;;;;6.95;2.10;;;6.50;1.00;;;;;;5009544;28;20238;-80
2022/01/17 10:50:30;;;;;;;4.93;2.25;;;6.30;1.00;;;;;;5014907;28;20313;-80
2022/01/17 10:53:37;;;;;;;6.13;2.20;;;6.10;1.00;;;;;;5006344;28;20313;-80
2022/01/17 10:56:24;;;;;;;8.45;2.08;;;6.00;1.00;;;;;;5015057;28;20268;-79
2022/01/17 10:59:09;;;;;;;4.38;1.80;;;5.90;1.00;;;;;;4995324;28;20233;-79
2022/01/17 11:02:46;;;;;;;5.35;2.70;;;5.80;1.00;;;;;;5013289;28;20324;-81
2022/01/17 11:05:18;;;;;;;5.22;2.10;;;5.80;1.00;;;;;;5012803;28;21011;-82
2022/01/17 11:07:51;;;;;;;7.85;3.65;;;5.80;1.00;;;;;;5009039;28;20321;-80
2022/01/17 11:10:40;;;;;;;5.28;1.73;;;5.80;1.00;;;;;;4995556;28;22043;-80
2022/01/17 11:13:19;;;;;;;3.40;1.10;;;5.70;1.00;;;;;;4995197;28;20259;-80
2022/01/17 11:15:54;;;;;;;5.07;1.50;;;5.60;1.00;;;;;;4992011;28;20239;-80
2022/01/17 11:18:27;;;;;;;3.17;1.70;;;5.40;1.00;;;;;;5012005;28;20262;-80
2022/01/17 11:20:55;;;;;;;5.78;1.58;;;5.30;1.00;;;;;;5011838;28;21021;-79
2022/01/17 11:23:23;;;;;;;4.78;2.13;;;5.00;1.00;;;;;;5009890;28;20258;-81
2022/01/17 11:25:55;;;;;;;6.10;2.03;;;4.90;1.00;;;;;;4996651;28;20240;-80
2022/01/17 11:28:26;;;;;;;8.25;3.33;;;4.80;1.00;;;;;;5004640;28;20389;-80
2022/01/17 11:31:08;;;;;;;5.35;2.55;;;4.70;1.00;;;;;;5009239;28;20630;-81
2022/01/17 11:33:37;;;;;;;7.40;2.75;;;4.70;1.00;;;;;;5006490;28;20223;-80
2022/01/17 11:40:59;;;;;;;;;;;;;;;;;;;;;
2022/01/17 11:44:24;;;;;;;8.85;2.72;;;4.60;1.00;;;;;;4964497;28;20239;-79
2022/01/17 11:50:49;;;;;;;6.85;2.60;;;4.80;1.00;;;;;;4852961;28;20234;-79
2022/01/17 11:53:53;;;;;;;5.22;2.00;;;4.70;1.00;;;;;;4992272;28;20313;-80
2022/01/17 11:56:50;;;;;;;6.22;2.80;;;4.70;1.00;;;;;;5030244;28;20230;-80
2022/01/17 11:59:34;;;;;;;6.25;2.00;;;4.80;1.00;;;;;;5023653;28;20256;-80
2022/01/17 12:02:23;;;;;;;6.45;2.85;;;4.80;1.00;;;;;;5032448;28;20594;-80
2022/01/17 12:05:28;;;;;;;7.47;2.45;;;4.90;1.00;;;;;;5033617;28;20222;-78
2022/01/17 12:07:57;;;;;;;11.63;2.58;;;4.90;1.00;;;;;;5025712;28;20237;-80
2022/01/17 12:10:27;;;;;;;7.43;2.47;;;4.90;1.00;;;;;;5008145;28;20272;-80
2022/01/17 12:13:35;;;;;;;5.53;2.22;;;4.90;1.00;;;;;;5011265;28;20281;-79
2022/01/17 12:16:10;;;;;;;7.28;3.60;;;4.90;1.00;;;;;;5005099;28;20235;-80
2022/01/17 12:18:41;;;;;;;5.97;3.38;;;5.00;1.00;;;;;;5011613;28;21258;-79
2022/01/17 12:21:19;;;;;;;7.65;2.75;;;5.10;1.00;;;;;;5008383;28;20237;-79
2022/01/17 12:24:29;;;;;;;7.25;3.05;;;5.10;1.00;;;;;;4994314;28;20226;-79
2022/01/17 12:27:13;;;;;;;5.00;2.42;;;5.00;1.00;;;;;;4990195;28;20234;-79
2022/01/17 12:29:51;;;;;;;7.60;2.95;;;4.90;1.00;;;;;;4996862;28;20275;-79
2022/01/17 12:32:47;;;;;;;6.43;2.65;;;4.80;1.00;;;;;;4998187;28;21188;-78
2022/01/17 12:35:56;;;;;;;7.05;1.80;;;4.80;1.00;;;;;;5007439;28;20231;-79
2022/01/17 12:38:39;;;;;;;5.88;2.70;;;4.90;1.00;;;;;;5006157;28;20223;-79
2022/01/17 12:41:36;;;;;;;5.28;2.60;;;4.90;1.00;;;;;;4999414;28;20237;-78
2022/01/17 12:47:40;;;;;;;8.88;2.42;;;5.00;1.00;;;;;;5000483;28;20234;-78
2022/01/17 12:56:17;;;;;;;4.65;1.98;;;5.30;1.00;;;;;;5022088;28;20229;-80
2022/01/17 12:59:13;;;;;;;4.57;2.00;;;5.50;1.00;;;;;;5037671;28;20225;-80
2022/01/17 13:01:49;;;;;;;5.07;2.15;;;5.60;1.00;;;;;;5038159;28;20240;-80
2022/01/17 13:04:31;;;;;;;6.72;3.10;;;5.60;1.00;;;;;;5021226;28;20229;-79
2022/01/17 13:07:28;;;;;;;5.60;2.75;;;5.70;1.00;;;;;;5022413;28;20226;-79
2022/01/17 13:10:48;;;;;;;7.25;2.20;;;5.70;1.00;;;;;;5029899;28;20796;-79
2022/01/17 13:13:27;;;;;;;7.75;1.80;;;5.70;1.00;;;;;;4916697;28;20240;-79
2022/01/17 13:16:02;;;;;;;6.40;2.20;;;5.80;1.00;;;;;;4984161;28;20932;-77
2022/01/17 13:21:19;;;;;;;5.50;2.38;;;5.60;1.00;;;;;;5011620;28;20225;-78
2022/01/17 13:23:57;;;;;;;5.15;2.40;;;5.40;1.00;;;;;;5042494;28;20236;-76
2022/01/17 13:30:02;;;;;;;5.85;2.47;;;5.30;1.00;;;;;;5019632;28;20229;-80
2022/01/17 13:32:36;;;;;;;7.80;3.47;;;5.60;1.00;;;;;;5043582;28;20273;-79
2022/01/17 13:35:26;;;;;;;6.93;2.20;;;6.70;1.00;;;;;;5043001;28;20244;-81
2022/01/17 13:38:18;;;;;;;7.93;2.33;;;6.80;1.00;;;;;;5023833;28;20217;-79
2022/01/17 13:40:55;;;;;;;4.25;2.55;;;6.50;1.00;;;;;;5046684;28;20225;-82
2022/01/17 13:43:25;;;;;;;7.25;3.15;;;6.10;1.00;;;;;;5046044;28;20541;-80
2022/01/17 13:46:00;;;;;;;9.15;3.60;;;5.80;1.00;;;;;;5042739;28;20854;-79
2022/01/17 13:48:29;;;;;;;5.90;2.15;;;5.60;1.00;;;;;;5037430;28;20329;-80
2022/01/17 13:51:00;;;;;;;11.50;3.03;;;5.50;1.00;;;;;;5021081;28;20262;-80
2022/01/17 13:53:29;;;;;;;4.35;2.28;;;5.50;1.00;;;;;;5027143;28;20612;-79
2022/01/17 13:55:58;;;;;;;8.30;2.90;;;5.40;1.00;;;;;;5028762;28;20316;-78
2022/01/17 13:58:28;;;;;;;6.68;2.38;;;5.40;1.00;;;;;;5001941;28;20242;-80
2022/01/17 14:00:57;;;;;;;4.30;2.10;;;5.30;1.00;;;;;;5001846;28;20320;-81
2022/01/17 14:03:31;;;;;;;5.25;2.75;;;5.30;1.00;;;;;;5020365;28;20343;-82
2022/01/17 14:06:06;;;;;;;7.72;2.63;;;5.20;1.00;;;;;;5021826;28;20214;-80
2022/01/17 14:08:38;;;;;;;4.95;2.17;;;5.20;1.00;;;;;;5024071;28;20220;-79
2022/01/17 14:11:07;;;;;;;11.13;3.40;;;5.20;1.00;;;;;;5017845;28;20230;-79
2022/01/17 14:13:37;;;;;;;9.27;3.58;;;5.10;1.00;;;;;;5021943;28;20258;-79
2022/01/17 14:16:16;;;;;;;6.85;2.78;;;5.10;1.00;;;;;;5017166;28;20231;-79
2022/01/17 14:18:46;;;;;;;8.40;2.83;;;5.10;1.00;;;;;;5031869;28;20239;-80
2022/01/17 14:21:25;;;;;;;10.15;2.47;;;5.10;1.00;;;;;;5000105;28;20234;-80
2022/01/17 14:24:13;;;;;;;6.57;4.05;;;5.10;1.00;;;;;;5016935;28;20904;-79
2022/01/17 14:26:43;;;;;;;7.95;2.72;;;5.00;1.00;;;;;;5020201;28;20222;-79
2022/01/17 14:29:11;;;;;;;10.40;3.25;;;5.00;1.00;;;;;;5020158;28;20278;-79
2022/01/17 14:31:40;;;;;;;9.95;3.35;;;5.00;1.00;;;;;;5000149;28;20230;-80
2022/01/17 14:34:14;;;;;;;8.75;2.60;;;5.00;1.00;;;;;;5000211;28;20319;-80
2022/01/17 14:36:43;;;;;;;7.13;3.03;;;5.00;1.00;;;;;;5007124;28;20233;-81
2022/01/17 14:39:55;;;;;;;15.07;3.95;;;5.00;1.00;;;;;;5028443;28;20233;-81
2022/01/17 14:47:17;;;;;;;6.97;3.03;;;4.90;1.00;;;;;;4996860;28;20231;-81
2022/01/17 14:50:25;;;;;;;9.13;4.80;;;4.80;1.00;;;;;;4958940;28;20311;-80
2022/01/17 14:53:02;;;;;;;8.75;3.28;;;4.80;1.00;;;;;;5008771;28;20471;-80
2022/01/17 15:01:17;;;;;;;7.50;3.35;;;4.70;1.00;;;;;;5070396;28;20281;-80
2022/01/17 15:03:52;;;;;;;7.57;3.00;;;4.60;1.00;;;;;;5044643;28;21408;-81
2022/01/17 15:06:24;;;;;;;6.72;2.97;;;4.60;1.00;;;;;;5055393;28;20224;-79
2022/01/17 15:09:03;;;;;;;6.90;3.08;;;4.60;1.00;;;;;;5054294;28;20221;-81
2022/01/17 15:11:39;;;;;;;11.23;3.85;;;4.50;1.00;;;;;;5041650;28;20234;-79
2022/01/17 15:14:10;;;;;;;10.23;2.80;;;4.50;1.00;;;;;;5042936;28;20720;-78
2022/01/17 15:16:41;;;;;;;10.95;3.78;;;4.50;1.00;;;;;;5070655;28;20287;-81
2022/01/17 15:19:15;;;;;;;8.55;3.65;;;4.50;1.00;;;;;;5058443;28;20232;-80
2022/01/17 15:21:47;;;;;;;8.50;3.20;;;4.40;1.00;;;;;;5057334;28;20236;-80
2022/01/17 15:24:15;;;;;;;7.35;3.47;;;4.40;1.00;;;;;;5037680;28;20225;-79
2022/01/17 15:26:48;;;;;;;8.27;4.20;;;4.40;1.00;;;;;;5052540;28;20236;-79
2022/01/17 15:29:35;;;;;;;13.57;3.08;;;4.30;1.00;;;;;;5053120;28;20290;-80
2022/01/17 15:32:07;;;;;;;10.65;3.78;;;4.30;1.00;;;;;;5040642;28;20225;-80
2022/01/17 15:34:40;;;;;;;15.77;4.22;;;4.20;1.00;;;;;;5060307;28;20478;-80
2022/01/17 15:37:20;;;;;;;11.20;4.50;;;4.20;1.00;;;;;;5047052;28;20609;-79
2022/01/17 15:39:52;;;;;;;14.02;4.22;;;4.20;1.00;;;;;;5069472;28;20231;-79
2022/01/17 15:42:29;;;;;;;19.17;4.03;;;4.20;1.00;;;;;;5055726;28;20279;-81
2022/01/17 15:44:58;;;;;;;9.57;4.28;;;4.20;1.00;;;;;;5053846;28;20228;-80
2022/01/17 15:47:25;;;;;;;13.18;4.18;;;4.20;1.00;;;;;;5039636;28;20251;-81
2022/01/17 15:49:54;;;;;;;10.93;3.85;;;4.10;1.00;;;;;;5056232;28;20230;-81
2022/01/17 15:52:23;;;;;;;9.07;3.58;;;4.10;1.00;;;;;;5057197;28;20217;-80